Time;durP1;ratioP1;P1;durP2;ratioP2;P2;SDS_P1;SDS_P2;PMS_P1;PMS_P2;Temp;Humidity;BMP_temperature;BMP_pressure;BME280_temperature;BME280_humidity;BME280_pressure;Samples;Min_cycle;Max_cycle;Signal;HPM_P1;HPM_P2
2023/03/24 00:00:59;;;;;;;6.13;2.65;;;;;;;;;;4994741;28;98319;-71
2023/03/24 00:03:28;;;;;;;9.85;2.78;;;;;;;;;;4991338;28;92551;-71
2023/03/24 00:06:04;;;;;;;10.20;2.67;;;;;;;;;;4986217;28;95385;-71
2023/03/24 00:08:34;;;;;;;6.82;2.95;;;;;;;;;;4992393;28;93509;-71
2023/03/24 00:11:03;;;;;;;6.28;2.88;;;;;;;;;;4987306;28;91735;-71
2023/03/24 00:13:30;;;;;;;8.73;2.97;;;;;;;;;;4979158;28;92413;-71
2023/03/24 00:15:57;;;;;;;9.82;2.85;;;;;;;;;;4992854;28;93451;-71
2023/03/24 00:18:24;;;;;;;8.30;2.83;;;;;;;;;;4972407;28;94826;-71
2023/03/24 00:20:57;;;;;;;9.30;2.80;;;;;;;;;;4977305;28;94349;-71
2023/03/24 00:23:24;;;;;;;9.45;2.83;;;;;;;;;;4996565;28;93583;-71
2023/03/24 00:26:13;;;;;;;6.80;3.17;;;;;;;;;;4983369;28;93164;-71
2023/03/24 00:28:44;;;;;;;7.07;2.88;;;;;;;;;;4993138;28;93301;-71
2023/03/24 00:31:13;;;;;;;8.45;2.70;;;;;;;;;;4995486;28;92758;-71
2023/03/24 00:33:41;;;;;;;8.20;3.28;;;;;;;;;;4994348;28;93079;-72
2023/03/24 00:36:10;;;;;;;5.95;2.78;;;;;;;;;;4993939;28;93185;-71
2023/03/24 00:38:37;;;;;;;13.53;2.90;;;;;;;;;;4991424;28;92534;-71
2023/03/24 00:41:05;;;;;;;10.07;3.20;;;;;;;;;;4991013;28;93286;-71
2023/03/24 00:43:31;;;;;;;3.53;1.98;;;;;;;;;;4993724;28;96719;-70
2023/03/24 00:46:00;;;;;;;4.40;2.63;;;;;;;;;;4996972;28;92731;-71
2023/03/24 00:48:27;;;;;;;6.63;2.58;;;;;;;;;;4983915;28;93670;-71
2023/03/24 00:50:53;;;;;;;4.90;2.80;;;;;;;;;;4994577;28;92584;-71
2023/03/24 00:53:22;;;;;;;6.18;3.08;;;;;;;;;;4989273;28;93148;-71
2023/03/24 00:55:48;;;;;;;7.90;2.92;;;;;;;;;;4992888;28;93906;-72
2023/03/24 00:58:22;;;;;;;9.70;2.75;;;;;;;;;;4994262;28;92678;-71
2023/03/24 01:00:50;;;;;;;7.28;2.85;;;;;;;;;;4983368;28;93130;-71
2023/03/24 01:03:23;;;;;;;8.15;2.58;;;;;;;;;;4990890;28;93857;-71
2023/03/24 01:05:50;;;;;;;4.82;2.35;;;;;;;;;;4992238;28;92559;-70
2023/03/24 01:08:19;;;;;;;5.93;2.50;;;;;;;;;;4995908;28;95131;-71
2023/03/24 01:10:54;;;;;;;5.57;2.63;;;;;;;;;;4995928;28;92873;-70
2023/03/24 01:13:22;;;;;;;6.45;2.83;;;;;;;;;;4996465;28;93291;-72
2023/03/24 01:15:48;;;;;;;7.80;3.58;;;;;;;;;;4998995;28;92677;-71
2023/03/24 01:18:15;;;;;;;9.77;2.35;;;;;;;;;;4995341;28;92580;-71
2023/03/24 01:20:44;;;;;;;6.90;2.90;;;;;;;;;;4994448;28;93260;-71
2023/03/24 01:23:13;;;;;;;3.88;2.70;;;;;;;;;;4995485;28;93556;-72
2023/03/24 01:25:41;;;;;;;4.57;2.88;;;;;;;;;;4980553;28;91658;-71
2023/03/24 01:28:07;;;;;;;5.50;2.53;;;;;;;;;;5014802;28;93463;-71
2023/03/24 01:30:33;;;;;;;6.93;2.72;;;;;;;;;;5018776;28;93708;-71
2023/03/24 01:33:00;;;;;;;4.13;2.60;;;;;;;;;;4994023;28;94907;-71
2023/03/24 01:35:26;;;;;;;4.93;3.00;;;;;;;;;;4990464;28;93424;-71
2023/03/24 01:37:55;;;;;;;6.00;2.95;;;;;;;;;;4986619;28;92665;-71
2023/03/24 01:40:23;;;;;;;5.82;3.13;;;;;;;;;;4995127;28;92918;-71
2023/03/24 01:42:50;;;;;;;7.35;2.38;;;;;;;;;;4991063;28;93887;-70
2023/03/24 01:45:34;;;;;;;4.82;2.67;;;;;;;;;;4975832;28;92480;-71
2023/03/24 01:48:01;;;;;;;6.40;2.83;;;;;;;;;;5005570;28;92510;-71
2023/03/24 01:50:28;;;;;;;7.03;2.70;;;;;;;;;;4993499;28;92988;-71
2023/03/24 01:52:55;;;;;;;5.03;3.22;;;;;;;;;;4995662;28;92526;-71
2023/03/24 01:55:22;;;;;;;4.30;2.72;;;;;;;;;;4990926;28;93819;-70
2023/03/24 01:57:53;;;;;;;4.10;2.53;;;;;;;;;;4989579;28;95141;-71
2023/03/24 02:00:20;;;;;;;3.45;2.70;;;;;;;;;;4978355;28;95689;-70
2023/03/24 02:02:53;;;;;;;8.43;3.00;;;;;;;;;;4986327;28;93406;-73
2023/03/24 02:05:21;;;;;;;3.50;2.70;;;;;;;;;;4980369;28;92581;-72
2023/03/24 02:08:07;;;;;;;5.72;2.90;;;;;;;;;;4984853;28;93278;-72
2023/03/24 02:10:34;;;;;;;5.63;2.75;;;;;;;;;;4986399;28;94626;-72
2023/03/24 02:13:00;;;;;;;6.70;3.05;;;;;;;;;;4998122;28;92438;-72
2023/03/24 02:15:27;;;;;;;4.32;2.63;;;;;;;;;;4986236;28;92751;-72
2023/03/24 02:18:32;;;;;;;4.50;2.60;;;;;;;;;;4992032;28;92399;-73
2023/03/24 02:21:02;;;;;;;5.25;3.00;;;;;;;;;;4972255;28;93231;-72
2023/03/24 02:23:55;;;;;;;4.18;2.70;;;;;;;;;;4965348;28;96042;-72
2023/03/24 02:26:40;;;;;;;4.63;2.65;;;;;;;;;;4971898;28;92461;-71
2023/03/24 02:29:30;;;;;;;6.30;2.90;;;;;;;;;;4972842;28;94582;-72
2023/03/24 02:32:08;;;;;;;11.10;3.95;;;;;;;;;;4957627;28;93475;-72
2023/03/24 02:34:44;;;;;;;8.35;3.20;;;;;;;;;;4953083;28;92597;-72
2023/03/24 02:37:17;;;;;;;5.22;3.00;;;;;;;;;;4963377;28;94202;-71
2023/03/24 02:39:44;;;;;;;6.28;3.33;;;;;;;;;;4954789;28;92602;-71
2023/03/24 02:42:16;;;;;;;4.53;2.20;;;;;;;;;;4964955;28;93316;-70
2023/03/24 02:45:03;;;;;;;3.92;2.10;;;;;;;;;;4942240;28;94059;-71
2023/03/24 02:47:29;;;;;;;3.97;1.92;;;;;;;;;;4964422;28;92634;-71
2023/03/24 02:50:00;;;;;;;3.58;2.10;;;;;;;;;;4951071;28;94859;-71
2023/03/24 02:52:45;;;;;;;2.70;1.92;;;;;;;;;;4975884;28;93245;-71
2023/03/24 02:55:30;;;;;;;7.57;1.98;;;;;;;;;;4985134;28;94219;-71
2023/03/24 02:57:56;;;;;;;2.58;1.80;;;;;;;;;;4987266;28;93509;-72
2023/03/24 03:00:27;;;;;;;5.28;1.65;;;;;;;;;;4982456;28;93441;-72
2023/03/24 03:03:10;;;;;;;6.30;1.80;;;;;;;;;;4973022;28;93204;-72
2023/03/24 03:05:51;;;;;;;2.45;1.63;;;;;;;;;;4986378;28;94141;-71
2023/03/24 03:08:20;;;;;;;5.07;1.60;;;;;;;;;;4989977;28;92570;-71
2023/03/24 03:10:48;;;;;;;4.95;1.50;;;;;;;;;;4987565;28;92483;-71
2023/03/24 03:13:17;;;;;;;4.53;1.60;;;;;;;;;;4990487;28;94598;-71
2023/03/24 03:15:47;;;;;;;5.03;1.53;;;;;;;;;;4987460;28;94865;-71
2023/03/24 03:18:17;;;;;;;3.63;0.98;;;;;;;;;;4991696;28;95520;-71
2023/03/24 03:20:51;;;;;;;4.03;1.20;;;;;;;;;;4988434;28;93478;-71
2023/03/24 03:23:22;;;;;;;5.35;1.63;;;;;;;;;;4995620;28;92535;-71
2023/03/24 03:25:50;;;;;;;6.28;1.67;;;;;;;;;;4993141;28;93454;-71
2023/03/24 03:28:20;;;;;;;8.23;2.05;;;;;;;;;;4989565;28;93911;-71
2023/03/24 03:30:53;;;;;;;4.65;1.48;;;;;;;;;;4989805;28;93177;-71
2023/03/24 03:33:25;;;;;;;6.88;1.30;;;;;;;;;;4990856;28;93036;-71
2023/03/24 03:35:53;;;;;;;7.05;1.65;;;;;;;;;;4987988;28;93572;-71
2023/03/24 03:38:22;;;;;;;11.80;1.60;;;;;;;;;;4989290;28;94182;-71
2023/03/24 03:40:50;;;;;;;6.27;2.33;;;;;;;;;;4989912;28;96049;-71
2023/03/24 03:43:16;;;;;;;8.40;2.00;;;;;;;;;;4989237;28;92864;-71
2023/03/24 03:45:43;;;;;;;6.28;1.70;;;;;;;;;;4991231;28;96035;-71
2023/03/24 03:48:10;;;;;;;6.13;1.83;;;;;;;;;;4982741;28;92453;-71
2023/03/24 03:50:37;;;;;;;10.73;1.90;;;;;;;;;;4990085;28;93150;-70
2023/03/24 03:53:05;;;;;;;7.40;1.85;;;;;;;;;;4991637;28;93176;-71
2023/03/24 03:55:32;;;;;;;14.50;2.45;;;;;;;;;;4992009;28;92492;-71
2023/03/24 03:57:59;;;;;;;12.32;2.35;;;;;;;;;;4993549;28;91866;-71
2023/03/24 04:00:25;;;;;;;13.50;1.95;;;;;;;;;;4982045;28;93414;-71
2023/03/24 04:02:59;;;;;;;8.23;1.67;;;;;;;;;;4985490;28;92476;-71
2023/03/24 04:05:26;;;;;;;13.65;1.92;;;;;;;;;;4988146;28;94878;-71
2023/03/24 04:08:05;;;;;;;16.67;2.10;;;;;;;;;;4997029;28;94536;-71
2023/03/24 04:10:50;;;;;;;20.88;2.83;;;;;;;;;;4992906;28;93191;-71
2023/03/24 04:13:38;;;;;;;9.80;1.88;;;;;;;;;;4994968;28;93414;-71
2023/03/24 04:16:13;;;;;;;14.63;2.67;;;;;;;;;;4996450;28;92654;-71
2023/03/24 04:18:52;;;;;;;11.40;1.85;;;;;;;;;;4996243;28;94415;-71
2023/03/24 04:21:32;;;;;;;15.35;2.40;;;;;;;;;;4995897;28;93262;-71
2023/03/24 04:23:59;;;;;;;13.37;2.37;;;;;;;;;;4979738;28;92120;-71
2023/03/24 04:26:34;;;;;;;14.45;2.17;;;;;;;;;;4989670;28;94371;-71
2023/03/24 04:29:18;;;;;;;14.00;2.90;;;;;;;;;;4997204;28;93583;-70
2023/03/24 04:32:13;;;;;;;14.45;2.60;;;;;;;;;;4992335;28;94860;-71
2023/03/24 04:34:41;;;;;;;9.90;2.47;;;;;;;;;;4992352;28;93418;-71
2023/03/24 04:37:11;;;;;;;15.57;2.60;;;;;;;;;;4982038;28;93015;-71
2023/03/24 04:39:39;;;;;;;10.00;2.15;;;;;;;;;;4991075;28;93563;-71
2023/03/24 04:42:08;;;;;;;22.95;3.08;;;;;;;;;;4994004;28;92951;-70
2023/03/24 04:44:35;;;;;;;33.40;3.40;;;;;;;;;;4992929;28;92962;-70
2023/03/24 04:47:02;;;;;;;19.38;2.55;;;;;;;;;;4996024;28;94251;-71
2023/03/24 04:49:28;;;;;;;27.85;3.70;;;;;;;;;;4980013;28;94037;-71
2023/03/24 04:51:55;;;;;;;25.05;3.10;;;;;;;;;;4998026;28;92595;-71
2023/03/24 04:54:22;;;;;;;12.27;2.30;;;;;;;;;;4994159;28;93534;-71
2023/03/24 04:56:48;;;;;;;18.67;3.33;;;;;;;;;;4985067;28;94820;-72
2023/03/24 04:59:15;;;;;;;21.02;2.85;;;;;;;;;;4986620;28;95610;-71
2023/03/24 05:01:48;;;;;;;19.10;3.67;;;;;;;;;;4995437;28;92691;-72
2023/03/24 05:04:16;;;;;;;18.85;3.30;;;;;;;;;;4992281;28;92591;-71
2023/03/24 05:06:42;;;;;;;32.35;4.55;;;;;;;;;;4987940;28;94332;-71
2023/03/24 05:09:08;;;;;;;20.98;3.60;;;;;;;;;;4986795;28;93978;-70
2023/03/24 05:11:35;;;;;;;22.30;3.45;;;;;;;;;;4993859;28;92491;-70
2023/03/24 05:14:01;;;;;;;22.05;3.50;;;;;;;;;;4995122;28;93186;-71
2023/03/24 05:16:27;;;;;;;25.00;3.42;;;;;;;;;;4994482;28;92686;-71
2023/03/24 05:18:54;;;;;;;17.95;3.75;;;;;;;;;;4994229;28;93287;-71
2023/03/24 05:21:20;;;;;;;16.90;2.95;;;;;;;;;;4991396;28;95849;-71
2023/03/24 05:23:47;;;;;;;28.67;3.63;;;;;;;;;;4982722;28;92644;-71
2023/03/24 05:26:13;;;;;;;26.95;3.38;;;;;;;;;;4995960;28;93161;-71
2023/03/24 05:28:40;;;;;;;22.83;4.15;;;;;;;;;;4994643;28;92361;-71
2023/03/24 05:31:06;;;;;;;27.02;3.72;;;;;;;;;;4994112;28;92491;-71
2023/03/24 05:33:32;;;;;;;24.17;3.42;;;;;;;;;;4992399;28;93999;-71
2023/03/24 05:35:59;;;;;;;28.23;4.25;;;;;;;;;;4989606;28;94135;-71
2023/03/24 05:38:25;;;;;;;26.45;3.53;;;;;;;;;;4985780;28;93329;-71
2023/03/24 05:40:55;;;;;;;26.30;3.85;;;;;;;;;;4993756;28;93478;-71
2023/03/24 05:43:21;;;;;;;30.77;3.85;;;;;;;;;;4993092;28;92492;-71
2023/03/24 05:45:47;;;;;;;20.17;3.13;;;;;;;;;;4989932;28;95736;-71
2023/03/24 05:48:14;;;;;;;23.88;3.88;;;;;;;;;;4994761;28;94049;-71
2023/03/24 05:50:40;;;;;;;20.30;3.40;;;;;;;;;;4994233;28;92491;-71
2023/03/24 05:53:07;;;;;;;30.13;4.38;;;;;;;;;;4990988;28;93168;-71
2023/03/24 05:55:34;;;;;;;26.60;4.10;;;;;;;;;;4991281;28;94572;-71
2023/03/24 05:58:03;;;;;;;32.15;4.35;;;;;;;;;;4991798;28;92531;-71
2023/03/24 06:00:30;;;;;;;32.65;5.32;;;;;;;;;;4981398;28;93356;-71
2023/03/24 06:02:57;;;;;;;25.08;4.05;;;;;;;;;;4996663;28;91687;-71
2023/03/24 06:05:23;;;;;;;28.27;4.15;;;;;;;;;;4987159;28;92768;-71
2023/03/24 06:07:50;;;;;;;33.33;5.40;;;;;;;;;;4990757;28;92420;-71
2023/03/24 06:10:17;;;;;;;32.70;3.88;;;;;;;;;;4991533;28;94988;-70
2023/03/24 06:12:44;;;;;;;26.25;4.10;;;;;;;;;;4992646;28;95964;-71
2023/03/24 06:15:10;;;;;;;29.05;4.10;;;;;;;;;;4991992;28;93498;-71
2023/03/24 06:17:36;;;;;;;31.73;3.83;;;;;;;;;;4995346;28;92429;-71
2023/03/24 06:20:04;;;;;;;28.08;3.88;;;;;;;;;;4997955;28;93218;-71
2023/03/24 06:22:31;;;;;;;34.13;4.05;;;;;;;;;;4980481;28;92476;-71
2023/03/24 06:24:58;;;;;;;21.70;3.85;;;;;;;;;;4975425;28;94237;-71
2023/03/24 06:27:28;;;;;;;25.10;3.83;;;;;;;;;;4993192;28;92597;-71
2023/03/24 06:29:55;;;;;;;;;;;;;;;;;;4990937;28;92526;-70
2023/03/24 06:32:21;;;;;;;25.92;4.50;;;;;;;;;;4991027;28;124142;-70
2023/03/24 06:34:47;;;;;;;19.75;3.65;;;;;;;;;;4973091;28;95758;-70
2023/03/24 06:37:14;;;;;;;22.65;3.60;;;;;;;;;;4975170;28;92468;-70
2023/03/24 06:39:40;;;;;;;21.67;3.95;;;;;;;;;;4985283;28;92462;-70
2023/03/24 06:42:06;;;;;;;24.45;3.83;;;;;;;;;;4992251;28;92460;-71
2023/03/24 06:44:33;;;;;;;27.52;4.20;;;;;;;;;;4992387;28;93705;-70
2023/03/24 06:46:59;;;;;;;20.50;3.20;;;;;;;;;;4991738;28;93443;-71
2023/03/24 06:49:25;;;;;;;32.20;4.55;;;;;;;;;;4992846;28;92462;-71
2023/03/24 06:51:53;;;;;;;19.73;3.15;;;;;;;;;;4992437;28;93211;-70
2023/03/24 06:54:19;;;;;;;22.58;3.70;;;;;;;;;;4991506;28;96206;-71
2023/03/24 06:56:46;;;;;;;24.23;3.88;;;;;;;;;;4992396;28;92449;-71
2023/03/24 06:59:12;;;;;;;19.35;3.55;;;;;;;;;;4983403;28;95810;-71
2023/03/24 07:01:38;;;;;;;18.90;3.35;;;;;;;;;;4988558;28;94762;-70
2023/03/24 07:04:05;;;;;;;29.05;3.42;;;;;;;;;;4987340;28;94012;-71
2023/03/24 07:06:32;;;;;;;28.33;4.10;;;;;;;;;;4984594;28;93838;-71
2023/03/24 07:09:12;;;;;;;24.05;3.17;;;;;;;;;;4988890;28;92451;-71
2023/03/24 07:11:38;;;;;;;16.77;3.17;;;;;;;;;;4990819;28;94202;-69
2023/03/24 07:14:04;;;;;;;36.20;3.78;;;;;;;;;;4991526;28;93435;-69
2023/03/24 07:16:31;;;;;;;19.60;3.72;;;;;;;;;;4990944;28;91684;-69
2023/03/24 07:18:57;;;;;;;23.20;3.60;;;;;;;;;;4978979;28;93484;-70
2023/03/24 07:21:23;;;;;;;20.98;3.33;;;;;;;;;;4988453;28;94357;-69
2023/03/24 07:23:50;;;;;;;20.75;3.78;;;;;;;;;;4986215;28;95281;-70
2023/03/24 07:26:16;;;;;;;21.38;4.03;;;;;;;;;;4991450;28;93445;-69
2023/03/24 07:28:42;;;;;;;21.08;4.68;;;;;;;;;;4992788;28;92633;-69
2023/03/24 07:31:09;;;;;;;16.30;3.38;;;;;;;;;;4993906;28;93143;-69
2023/03/24 07:33:37;;;;;;;23.90;3.65;;;;;;;;;;4986824;28;94514;-70
2023/03/24 07:36:04;;;;;;;20.70;3.15;;;;;;;;;;4988594;28;92988;-69
2023/03/24 07:38:30;;;;;;;26.20;3.53;;;;;;;;;;4987196;28;95260;-69
2023/03/24 07:40:57;;;;;;;23.35;3.28;;;;;;;;;;4981820;28;92703;-69
2023/03/24 07:43:23;;;;;;;16.30;3.28;;;;;;;;;;4993530;28;94251;-69
2023/03/24 07:45:49;;;;;;;19.40;3.42;;;;;;;;;;4997682;28;93076;-69
2023/03/24 07:48:16;;;;;;;19.58;3.72;;;;;;;;;;4993620;28;95056;-69
2023/03/24 07:50:42;;;;;;;12.00;2.70;;;;;;;;;;4995192;28;95319;-69
2023/03/24 07:53:09;;;;;;;17.58;3.88;;;;;;;;;;4985635;28;94611;-69
2023/03/24 07:55:36;;;;;;;26.33;3.95;;;;;;;;;;4988352;28;92848;-69
2023/03/24 07:58:02;;;;;;;22.20;4.05;;;;;;;;;;4995748;28;93711;-69
2023/03/24 08:00:31;;;;;;;17.67;3.92;;;;;;;;;;4993575;28;93409;-69
2023/03/24 08:02:58;;;;;;;15.25;3.25;;;;;;;;;;5004475;28;92867;-69
2023/03/24 08:05:28;;;;;;;23.73;3.92;;;;;;;;;;4993592;28;92936;-69
2023/03/24 08:07:56;;;;;;;19.85;3.83;;;;;;;;;;4994109;28;93251;-68
2023/03/24 08:10:24;;;;;;;25.75;3.35;;;;;;;;;;4989246;28;95413;-68
2023/03/24 08:12:51;;;;;;;21.27;3.38;;;;;;;;;;4988248;28;95790;-69
2023/03/24 08:15:17;;;;;;;16.67;3.03;;;;;;;;;;4989316;28;94029;-68
2023/03/24 08:17:44;;;;;;;24.77;3.65;;;;;;;;;;4989271;28;93708;-68
2023/03/24 08:20:13;;;;;;;24.55;3.22;;;;;;;;;;4989275;28;93999;-68
2023/03/24 08:22:41;;;;;;;13.75;2.85;;;;;;;;;;4994871;28;92551;-68
2023/03/24 08:25:09;;;;;;;20.08;3.15;;;;;;;;;;4990665;28;94261;-69
2023/03/24 08:27:37;;;;;;;22.33;3.67;;;;;;;;;;4993169;28;94945;-69
2023/03/24 08:30:04;;;;;;;21.48;2.97;;;;;;;;;;4991485;28;92176;-69
2023/03/24 08:32:30;;;;;;;24.38;4.85;;;;;;;;;;4992811;28;94513;-68
2023/03/24 08:34:57;;;;;;;14.70;3.03;;;;;;;;;;4986916;28;93704;-68
2023/03/24 08:37:23;;;;;;;14.57;3.42;;;;;;;;;;4992288;28;95422;-68
2023/03/24 08:39:50;;;;;;;16.33;3.13;;;;;;;;;;4991436;28;93410;-69
2023/03/24 08:42:16;;;;;;;25.35;4.40;;;;;;;;;;4986323;28;95496;-69
2023/03/24 08:44:43;;;;;;;18.98;2.88;;;;;;;;;;4995667;28;93587;-68
2023/03/24 08:47:10;;;;;;;25.80;4.38;;;;;;;;;;4987825;28;94449;-68
2023/03/24 08:49:36;;;;;;;25.90;3.70;;;;;;;;;;4979587;28;92550;-68
2023/03/24 08:52:02;;;;;;;19.30;3.63;;;;;;;;;;4993095;28;93513;-69
2023/03/24 08:54:29;;;;;;;24.38;3.78;;;;;;;;;;4994663;28;91926;-68
2023/03/24 08:56:55;;;;;;;17.85;3.35;;;;;;;;;;4995848;28;93365;-68
2023/03/24 08:59:22;;;;;;;24.83;4.18;;;;;;;;;;4994515;28;93399;-69
2023/03/24 09:01:48;;;;;;;22.88;3.55;;;;;;;;;;4990645;28;96701;-69
2023/03/24 09:04:16;;;;;;;25.10;4.15;;;;;;;;;;4994289;28;93330;-69
2023/03/24 09:06:42;;;;;;;24.98;4.10;;;;;;;;;;4986723;28;94218;-69
2023/03/24 09:09:08;;;;;;;19.52;3.47;;;;;;;;;;4993697;28;92900;-70
2023/03/24 09:11:35;;;;;;;21.92;3.33;;;;;;;;;;4997015;28;94257;-70
2023/03/24 09:14:03;;;;;;;22.65;3.15;;;;;;;;;;4994917;28;92522;-69
2023/03/24 09:16:30;;;;;;;23.55;2.95;;;;;;;;;;4996233;28;94555;-69
2023/03/24 09:18:56;;;;;;;15.77;3.67;;;;;;;;;;4983826;28;92843;-69
2023/03/24 09:21:23;;;;;;;22.00;3.35;;;;;;;;;;4986762;28;92564;-69
2023/03/24 09:23:49;;;;;;;16.80;3.30;;;;;;;;;;4990821;28;94289;-70
2023/03/24 09:26:15;;;;;;;16.27;3.10;;;;;;;;;;4984361;28;95933;-70
2023/03/24 09:28:41;;;;;;;13.73;3.08;;;;;;;;;;4988978;28;92733;-69
2023/03/24 09:31:08;;;;;;;19.27;3.42;;;;;;;;;;4977212;28;93193;-69
2023/03/24 09:33:34;;;;;;;16.58;3.97;;;;;;;;;;4978579;28;93507;-69
2023/03/24 09:36:03;;;;;;;20.35;3.35;;;;;;;;;;4975557;28;93195;-70
2023/03/24 09:38:29;;;;;;;17.15;3.47;;;;;;;;;;4994567;28;93752;-70
2023/03/24 09:40:59;;;;;;;15.77;3.33;;;;;;;;;;4994707;28;92723;-69
2023/03/24 09:43:32;;;;;;;13.77;2.90;;;;;;;;;;4995862;28;93010;-69
2023/03/24 09:46:00;;;;;;;20.65;2.85;;;;;;;;;;4995521;28;93781;-69
2023/03/24 09:48:45;;;;;;;18.00;3.10;;;;;;;;;;4995168;28;93036;-70
2023/03/24 09:51:21;;;;;;;11.57;2.97;;;;;;;;;;4992108;28;94854;-70
2023/03/24 09:54:06;;;;;;;18.50;3.20;;;;;;;;;;4995121;28;93529;-71
2023/03/24 09:56:34;;;;;;;15.70;3.20;;;;;;;;;;4994303;28;92595;-70
2023/03/24 09:59:11;;;;;;;16.60;3.05;;;;;;;;;;4989401;28;93468;-70
2023/03/24 10:01:37;;;;;;;11.55;2.85;;;;;;;;;;4983098;28;92544;-70
2023/03/24 10:04:04;;;;;;;17.20;2.97;;;;;;;;;;4986143;28;93107;-70
2023/03/24 10:06:35;;;;;;;10.93;2.85;;;;;;;;;;4994666;28;93496;-70
2023/03/24 10:09:20;;;;;;;17.17;2.90;;;;;;;;;;4992326;28;91798;-70
2023/03/24 10:12:05;;;;;;;15.25;3.30;;;;;;;;;;4980962;28;92463;-70
2023/03/24 10:14:43;;;;;;;16.75;2.63;;;;;;;;;;4992365;28;92578;-69
2023/03/24 10:17:16;;;;;;;14.57;2.08;;;;;;;;;;4992819;28;95091;-69
2023/03/24 10:19:47;;;;;;;11.13;2.90;;;;;;;;;;4993389;28;95609;-69
2023/03/24 10:22:13;;;;;;;;;;;;;;;;;;4991969;28;92659;-69
2023/03/24 10:24:43;;;;;;;12.82;2.83;;;;;;;;;;4995973;28;123489;-69
2023/03/24 10:27:32;;;;;;;15.13;2.95;;;;;;;;;;4994293;28;92500;-70
2023/03/24 10:30:10;;;;;;;16.85;3.55;;;;;;;;;;4990500;28;92679;-70
2023/03/24 10:32:37;;;;;;;17.05;2.78;;;;;;;;;;4990888;28;92676;-70
2023/03/24 10:35:08;;;;;;;17.25;2.85;;;;;;;;;;4987849;28;92788;-69
2023/03/24 10:37:35;;;;;;;11.68;2.65;;;;;;;;;;4988029;28;92465;-70
2023/03/24 10:40:05;;;;;;;13.98;3.28;;;;;;;;;;4994665;28;94336;-70
2023/03/24 10:42:33;;;;;;;15.45;2.83;;;;;;;;;;4989360;28;95235;-69
2023/03/24 10:45:01;;;;;;;10.57;2.33;;;;;;;;;;4989522;28;96955;-70
2023/03/24 10:47:29;;;;;;;15.75;3.00;;;;;;;;;;4984461;28;94484;-70
2023/03/24 10:49:59;;;;;;;15.43;3.35;;;;;;;;;;4987638;28;94087;-70
2023/03/24 10:52:40;;;;;;;15.05;3.30;;;;;;;;;;4990398;28;94600;-70
2023/03/24 10:55:06;;;;;;;19.00;3.50;;;;;;;;;;4988124;28;92768;-70
2023/03/24 10:57:33;;;;;;;15.55;2.78;;;;;;;;;;4974423;28;92424;-70
2023/03/24 11:00:14;;;;;;;22.70;3.30;;;;;;;;;;4985211;28;93233;-70
2023/03/24 11:02:42;;;;;;;17.35;3.08;;;;;;;;;;4979742;28;93967;-70
2023/03/24 11:05:19;;;;;;;19.88;3.30;;;;;;;;;;4990420;28;92510;-70
2023/03/24 11:07:49;;;;;;;17.25;2.95;;;;;;;;;;4991904;28;96797;-70
2023/03/24 11:10:17;;;;;;;17.98;2.97;;;;;;;;;;4988246;28;92562;-70
2023/03/24 11:12:53;;;;;;;18.23;3.28;;;;;;;;;;4992970;28;93290;-70
2023/03/24 11:15:21;;;;;;;15.18;2.80;;;;;;;;;;4992044;28;93573;-69
2023/03/24 11:18:00;;;;;;;19.63;3.35;;;;;;;;;;4990977;28;92465;-70
2023/03/24 11:20:31;;;;;;;15.30;2.60;;;;;;;;;;4980147;28;93336;-69
2023/03/24 11:23:00;;;;;;;10.82;2.50;;;;;;;;;;4992897;28;93426;-69
2023/03/24 11:25:28;;;;;;;16.85;3.00;;;;;;;;;;4995516;28;91702;-69
2023/03/24 11:27:59;;;;;;;13.45;2.85;;;;;;;;;;4990020;28;94262;-69
2023/03/24 11:30:29;;;;;;;16.60;2.80;;;;;;;;;;4989863;28;92773;-70
2023/03/24 11:32:56;;;;;;;;;;;;;;;;;;4991044;28;94839;-70
2023/03/24 11:35:22;;;;;;;13.18;3.00;;;;;;;;;;4994678;28;124183;-70
2023/03/24 11:38:05;;;;;;;16.98;2.47;;;;;;;;;;4989819;28;92784;-70
2023/03/24 11:40:31;;;;;;;11.00;2.67;;;;;;;;;;4988323;28;94126;-70
2023/03/24 11:42:59;;;;;;;13.18;2.53;;;;;;;;;;4988946;28;93936;-70
2023/03/24 11:45:42;;;;;;;13.00;2.58;;;;;;;;;;4979071;28;93022;-70
2023/03/24 11:48:27;;;;;;;9.07;2.63;;;;;;;;;;4985234;28;93325;-70
2023/03/24 11:50:55;;;;;;;13.95;2.35;;;;;;;;;;4991609;28;91733;-70
2023/03/24 11:53:24;;;;;;;9.65;2.60;;;;;;;;;;4982716;28;92615;-70
2023/03/24 11:55:53;;;;;;;7.97;2.03;;;;;;;;;;4990654;28;94356;-70
2023/03/24 11:58:38;;;;;;;9.98;2.15;;;;;;;;;;4990990;28;95089;-70
2023/03/24 12:01:05;;;;;;;11.90;2.70;;;;;;;;;;4974357;28;95945;-70
2023/03/24 12:03:40;;;;;;;12.15;2.53;;;;;;;;;;4973741;28;93638;-70
2023/03/24 12:06:22;;;;;;;14.23;2.28;;;;;;;;;;4973705;28;92440;-70
2023/03/24 12:09:03;;;;;;;9.45;2.15;;;;;;;;;;4976764;28;93138;-70
2023/03/24 12:11:47;;;;;;;14.18;2.83;;;;;;;;;;4981063;28;93752;-70
2023/03/24 12:14:17;;;;;;;13.48;2.55;;;;;;;;;;4976473;28;93289;-70
2023/03/24 12:16:58;;;;;;;13.05;2.45;;;;;;;;;;4980877;28;92681;-70
2023/03/24 12:19:34;;;;;;;14.98;2.90;;;;;;;;;;4989855;28;94242;-70
2023/03/24 12:22:05;;;;;;;13.75;2.50;;;;;;;;;;4992751;28;93458;-70
2023/03/24 12:24:34;;;;;;;17.70;2.25;;;;;;;;;;4990863;28;96018;-70
2023/03/24 12:27:00;;;;;;;13.05;2.50;;;;;;;;;;4994660;28;94098;-70
2023/03/24 12:29:46;;;;;;;13.73;2.40;;;;;;;;;;4981246;28;93079;-70
2023/03/24 12:32:20;;;;;;;7.20;2.00;;;;;;;;;;4991038;28;92486;-70
2023/03/24 12:34:53;;;;;;;16.13;2.78;;;;;;;;;;4999895;28;92883;-72
2023/03/24 12:37:32;;;;;;;13.75;2.33;;;;;;;;;;4990464;28;93547;-71
2023/03/24 12:40:09;;;;;;;10.38;1.70;;;;;;;;;;4994564;28;92552;-71
2023/03/24 12:42:43;;;;;;;10.27;2.35;;;;;;;;;;4996774;28;93215;-71
2023/03/24 12:45:12;;;;;;;9.70;2.20;;;;;;;;;;4993661;28;93759;-71
2023/03/24 12:47:50;;;;;;;8.73;1.80;;;;;;;;;;4984653;28;93128;-73
2023/03/24 12:50:23;;;;;;;11.13;2.22;;;;;;;;;;4987229;28;95275;-70
2023/03/24 12:52:55;;;;;;;5.18;1.92;;;;;;;;;;4990720;28;94527;-71
2023/03/24 12:55:33;;;;;;;7.85;1.60;;;;;;;;;;4999573;28;92464;-71
2023/03/24 12:58:21;;;;;;;12.52;2.28;;;;;;;;;;4992621;28;93303;-71
2023/03/24 13:00:53;;;;;;;16.20;3.13;;;;;;;;;;4992538;28;92514;-71
2023/03/24 13:03:22;;;;;;;10.90;2.42;;;;;;;;;;4994473;28;93269;-71
2023/03/24 13:05:49;;;;;;;19.15;2.72;;;;;;;;;;4995498;28;93722;-70
2023/03/24 13:08:21;;;;;;;13.15;2.28;;;;;;;;;;4991376;28;91914;-71
2023/03/24 13:10:49;;;;;;;16.95;2.20;;;;;;;;;;4990038;28;93391;-70
2023/03/24 13:13:23;;;;;;;12.68;3.00;;;;;;;;;;4995721;28;94522;-71
2023/03/24 13:15:51;;;;;;;13.07;2.00;;;;;;;;;;4988059;28;94866;-71
2023/03/24 13:18:28;;;;;;;14.52;3.03;;;;;;;;;;4993272;28;95651;-70
2023/03/24 13:21:12;;;;;;;13.52;3.30;;;;;;;;;;4990516;28;92510;-70
2023/03/24 13:23:42;;;;;;;11.52;2.63;;;;;;;;;;4988407;28;93150;-71
2023/03/24 13:26:27;;;;;;;17.87;3.17;;;;;;;;;;4987158;28;95625;-70
2023/03/24 13:29:02;;;;;;;11.18;2.50;;;;;;;;;;4989973;28;92509;-70
2023/03/24 13:31:34;;;;;;;15.60;2.85;;;;;;;;;;4991868;28;93486;-70
2023/03/24 13:34:02;;;;;;;11.35;2.40;;;;;;;;;;4995103;28;92889;-70
2023/03/24 13:36:37;;;;;;;14.00;2.40;;;;;;;;;;4983043;28;93709;-70
2023/03/24 13:39:05;;;;;;;9.85;2.15;;;;;;;;;;4979962;28;92489;-70
2023/03/24 13:41:33;;;;;;;11.40;2.30;;;;;;;;;;4996137;28;95762;-70
2023/03/24 13:44:01;;;;;;;10.68;2.22;;;;;;;;;;4991800;28;96456;-70
2023/03/24 13:46:28;;;;;;;11.90;2.55;;;;;;;;;;4993230;28;93457;-71
2023/03/24 13:48:54;;;;;;;10.70;2.60;;;;;;;;;;4995588;28;92496;-70
2023/03/24 13:51:26;;;;;;;8.82;2.03;;;;;;;;;;4990912;28;94278;-71
2023/03/24 13:53:54;;;;;;;8.65;1.75;;;;;;;;;;4994267;28;93877;-70
2023/03/24 13:56:30;;;;;;;11.18;2.13;;;;;;;;;;4992871;28;92631;-71
2023/03/24 13:58:57;;;;;;;8.00;1.95;;;;;;;;;;4994033;28;93590;-71
2023/03/24 14:01:42;;;;;;;9.10;2.10;;;;;;;;;;4984829;28;92597;-70
2023/03/24 14:04:18;;;;;;;8.02;2.00;;;;;;;;;;4996885;28;92623;-70
2023/03/24 14:06:52;;;;;;;11.88;1.83;;;;;;;;;;4986442;28;96028;-70
2023/03/24 14:09:23;;;;;;;6.05;1.60;;;;;;;;;;4983136;28;92502;-70
2023/03/24 14:11:52;;;;;;;8.95;1.95;;;;;;;;;;4994446;28;94165;-70
2023/03/24 14:14:20;;;;;;;9.02;1.55;;;;;;;;;;4995136;28;93314;-70
2023/03/24 14:16:53;;;;;;;10.57;2.40;;;;;;;;;;4988309;28;92575;-70
2023/03/24 14:19:21;;;;;;;14.02;2.20;;;;;;;;;;4991622;28;93621;-70
2023/03/24 14:21:52;;;;;;;6.55;1.70;;;;;;;;;;4982717;28;93440;-70
2023/03/24 14:24:27;;;;;;;10.45;1.50;;;;;;;;;;4975962;28;91720;-70
2023/03/24 14:26:53;;;;;;;5.55;1.40;;;;;;;;;;4991534;28;92766;-70
2023/03/24 14:29:32;;;;;;;8.60;1.70;;;;;;;;;;4992513;28;92562;-70
2023/03/24 14:32:01;;;;;;;7.18;1.52;;;;;;;;;;4990321;28;94911;-70
2023/03/24 14:34:49;;;;;;;6.35;1.35;;;;;;;;;;4991652;28;93394;-70
2023/03/24 14:37:15;;;;;;;6.07;1.35;;;;;;;;;;4994021;28;92556;-70
2023/03/24 14:39:46;;;;;;;7.75;1.58;;;;;;;;;;4996337;28;94219;-70
2023/03/24 14:42:12;;;;;;;;;;;;;;;;;;5014755;28;95991;-70
2023/03/24 14:44:48;;;;;;;8.00;1.20;;;;;;;;;;4994998;28;118346;-70
2023/03/24 14:47:21;;;;;;;6.85;1.42;;;;;;;;;;4983189;28;94352;-70
2023/03/24 14:49:50;;;;;;;11.18;3.70;;;;;;;;;;4994118;28;93044;-71
2023/03/24 14:52:24;;;;;;;6.15;2.00;;;;;;;;;;4994088;28;92505;-71
2023/03/24 14:54:52;;;;;;;6.35;2.80;;;;;;;;;;4992584;28;93673;-71